Time;durP1;ratioP1;P1;durP2;ratioP2;P2;SDS_P1;SDS_P2;PMS_P1;PMS_P2;Temp;Humidity;BMP_temperature;BMP_pressure;BME280_temperature;BME280_humidity;BME280_pressure;Samples;Min_cycle;Max_cycle;Signal;HPM_P1;HPM_P2
2023/01/22 00:01:12;;;;;;;14.05;7.45;;;-0.30;99.90;;;;;;4956823;28;20420;-76
2023/01/22 00:03:39;;;;;;;12.15;7.10;;;-0.30;99.90;;;;;;4956598;29;20039;-76
2023/01/22 00:06:05;;;;;;;12.93;7.45;;;-0.40;99.90;;;;;;4956649;28;20053;-76
2023/01/22 00:08:31;;;;;;;12.27;7.32;;;-0.40;99.90;;;;;;4956815;29;20047;-76
2023/01/22 00:10:57;;;;;;;12.32;7.43;;;-0.50;99.90;;;;;;4956578;29;20042;-76
2023/01/22 00:13:25;;;;;;;11.18;6.55;;;-0.50;99.90;;;;;;4955935;29;20043;-76
2023/01/22 00:15:50;;;;;;;13.25;7.35;;;0.30;99.90;;;;;;4956419;28;20054;-76
2023/01/22 00:18:18;;;;;;;10.75;6.78;;;-0.60;99.90;;;;;;4957262;28;20047;-76
2023/01/22 00:20:48;;;;;;;13.00;7.82;;;-0.60;99.90;;;;;;4955475;29;20434;-76
2023/01/22 00:23:15;;;;;;;16.42;9.15;;;-0.60;99.90;;;;;;4957264;28;20039;-75
2023/01/22 00:25:40;;;;;;;12.20;7.13;;;-0.60;99.90;;;;;;4971326;28;20126;-76
2023/01/22 00:28:06;;;;;;;13.52;7.80;;;-0.50;99.90;;;;;;4956520;28;20198;-77
2023/01/22 00:30:32;;;;;;;14.43;7.70;;;-0.70;99.90;;;;;;4956333;28;20045;-76
2023/01/22 00:32:58;;;;;;;11.25;7.50;;;-0.70;99.90;;;;;;4956376;28;20049;-76
2023/01/22 00:35:24;;;;;;;13.32;7.80;;;-0.70;99.90;;;;;;4955269;29;20046;-76
2023/01/22 00:37:50;;;;;;;12.55;7.25;;;-0.70;99.90;;;;;;4956282;28;20054;-75
2023/01/22 00:40:16;;;;;;;12.68;7.18;;;-0.80;99.90;;;;;;4956067;29;20071;-77
2023/01/22 00:42:42;;;;;;;12.05;7.88;;;-0.80;99.90;;;;;;4956408;29;20078;-76
2023/01/22 00:45:09;;;;;;;11.40;7.53;;;-0.80;99.90;;;;;;4956195;28;20050;-76
2023/01/22 00:47:35;;;;;;;11.68;7.53;;;-0.80;99.90;;;;;;4955146;29;20094;-76
2023/01/22 00:50:01;;;;;;;12.60;7.43;;;-0.80;99.90;;;;;;4955030;29;20079;-76
2023/01/22 00:52:27;;;;;;;11.80;7.53;;;-0.80;99.90;;;;;;4954305;28;20052;-76
2023/01/22 00:54:52;;;;;;;12.40;7.85;;;-0.60;99.90;;;;;;4956402;29;20047;-76
2023/01/22 00:57:20;;;;;;;14.65;8.27;;;-0.80;99.90;;;;;;4954957;29;20043;-76
2023/01/22 00:59:50;;;;;;;11.95;7.45;;;-0.80;99.90;;;;;;4955878;28;20043;-76
2023/01/22 01:02:17;;;;;;;11.73;7.97;;;-0.50;99.90;;;;;;4955798;28;20043;-76
2023/01/22 01:04:42;;;;;;;11.77;8.00;;;-0.80;99.90;;;;;;4954589;29;20414;-76
2023/01/22 01:07:08;;;;;;;13.00;7.47;;;-0.80;99.90;;;;;;4955832;29;20047;-76
2023/01/22 01:09:34;;;;;;;11.55;7.30;;;-0.80;99.90;;;;;;4939602;29;20043;-76
2023/01/22 01:12:00;;;;;;;12.52;7.70;;;-0.40;99.90;;;;;;4956413;29;20043;-76
2023/01/22 01:14:26;;;;;;;12.50;7.50;;;-0.90;99.90;;;;;;4955537;28;20043;-76
2023/01/22 01:16:52;;;;;;;12.65;8.07;;;-0.90;99.90;;;;;;4955562;28;20133;-76
2023/01/22 01:19:21;;;;;;;14.20;8.18;;;-0.90;99.90;;;;;;4955539;29;20047;-76
2023/01/22 01:21:47;;;;;;;10.32;7.30;;;-0.90;99.90;;;;;;4954865;29;20133;-76
2023/01/22 01:24:13;;;;;;;12.55;7.28;;;-1.00;99.90;;;;;;4954586;29;20098;-76
2023/01/22 01:26:40;;;;;;;12.88;7.22;;;-0.90;99.90;;;;;;4955559;28;20043;-76
2023/01/22 01:29:08;;;;;;;10.88;7.15;;;-1.00;99.90;;;;;;4954571;29;20078;-76
2023/01/22 01:31:35;;;;;;;14.50;7.55;;;-0.60;99.90;;;;;;4954377;29;20089;-76
2023/01/22 01:34:01;;;;;;;10.50;6.53;;;-0.90;99.90;;;;;;4954731;29;20050;-76
2023/01/22 01:36:28;;;;;;;11.40;6.97;;;-0.90;99.90;;;;;;4955453;28;20547;-76
2023/01/22 01:38:54;;;;;;;11.45;6.80;;;-0.80;99.90;;;;;;4954444;29;20051;-76
2023/01/22 01:41:22;;;;;;;10.43;6.57;;;-0.70;99.90;;;;;;4956057;28;20058;-76
2023/01/22 01:44:09;;;;;;;10.15;6.60;;;0.10;99.90;;;;;;4955231;28;20098;-76
2023/01/22 01:46:37;;;;;;;;;;;-0.40;99.90;;;;;;4955707;28;20054;-76
2023/01/22 01:49:04;;;;;;;12.60;6.93;;;0.20;99.90;;;;;;4955300;28;19918;-76
2023/01/22 01:51:35;;;;;;;12.10;7.18;;;-0.40;99.90;;;;;;4955266;28;20079;-77
2023/01/22 01:54:03;;;;;;;12.23;6.85;;;-0.30;99.90;;;;;;4954985;29;20363;-76
2023/01/22 01:56:33;;;;;;;9.75;6.18;;;0.90;99.90;;;;;;4970135;28;20050;-76
2023/01/22 01:59:03;;;;;;;9.32;5.95;;;0.20;99.90;;;;;;4955333;28;20047;-76
2023/01/22 02:01:29;;;;;;;9.18;5.72;;;-0.10;99.90;;;;;;4955077;28;20464;-76
2023/01/22 02:03:56;;;;;;;10.07;5.80;;;-0.10;99.90;;;;;;4956117;28;20098;-76
2023/01/22 02:06:22;;;;;;;9.93;5.78;;;0.00;99.90;;;;;;4958662;28;20043;-76
2023/01/22 02:08:49;;;;;;;9.85;5.75;;;0.00;99.90;;;;;;4957755;29;20105;-76
2023/01/22 02:11:17;;;;;;;9.63;5.60;;;0.00;99.90;;;;;;4958875;28;20378;-76
2023/01/22 02:14:17;;;;;;;7.43;4.95;;;0.10;99.90;;;;;;4958743;28;20371;-76
2023/01/22 02:16:43;;;;;;;8.38;5.30;;;0.50;99.90;;;;;;4916393;29;20047;-76
2023/01/22 02:19:09;;;;;;;9.63;5.30;;;0.20;99.90;;;;;;4958151;29;20050;-76
2023/01/22 02:21:35;;;;;;;7.55;4.70;;;0.40;99.90;;;;;;4941589;29;20047;-76
2023/01/22 02:24:06;;;;;;;8.13;5.00;;;0.30;99.90;;;;;;4958462;29;20051;-76
2023/01/22 02:26:32;;;;;;;7.60;5.18;;;0.20;99.90;;;;;;4959182;28;20050;-76
2023/01/22 02:28:57;;;;;;;7.43;4.63;;;0.20;99.90;;;;;;4957680;29;20047;-76
2023/01/22 02:31:23;;;;;;;8.32;4.97;;;0.90;99.90;;;;;;4957487;29;20039;-77
2023/01/22 02:33:49;;;;;;;8.15;5.07;;;0.20;99.90;;;;;;4959305;29;20047;-76
2023/01/22 02:36:15;;;;;;;8.70;5.53;;;0.30;99.90;;;;;;4958631;28;20053;-76
2023/01/22 02:38:41;;;;;;;8.85;5.25;;;0.30;99.90;;;;;;4958544;29;20093;-76
2023/01/22 02:41:07;;;;;;;7.72;4.57;;;0.70;99.90;;;;;;4958788;28;20046;-77
2023/01/22 02:43:33;;;;;;;6.78;4.15;;;0.90;99.90;;;;;;4957381;29;20094;-76
2023/01/22 02:45:59;;;;;;;8.02;4.10;;;0.30;99.90;;;;;;4958794;29;20119;-76
2023/01/22 02:48:24;;;;;;;8.02;4.55;;;0.30;99.90;;;;;;4958316;28;20050;-77
2023/01/22 02:50:51;;;;;;;7.00;3.70;;;0.30;99.90;;;;;;4941577;29;20043;-76
2023/01/22 02:53:16;;;;;;;8.75;4.57;;;0.90;99.90;;;;;;4973615;28;20058;-76
2023/01/22 02:55:45;;;;;;;9.15;5.03;;;0.70;99.90;;;;;;4956853;29;20383;-76
2023/01/22 02:58:10;;;;;;;7.25;4.38;;;0.30;99.90;;;;;;4958096;28;20105;-76
2023/01/22 03:00:36;;;;;;;9.25;4.75;;;0.30;99.90;;;;;;4958047;28;20039;-76
2023/01/22 03:03:06;;;;;;;7.38;4.35;;;0.30;99.90;;;;;;4973181;28;20083;-76
2023/01/22 03:05:33;;;;;;;7.78;5.30;;;0.30;99.90;;;;;;4973488;28;20046;-76
2023/01/22 03:07:59;;;;;;;8.90;4.55;;;0.60;99.90;;;;;;4958552;28;20047;-76
2023/01/22 03:10:24;;;;;;;6.60;4.72;;;0.40;99.90;;;;;;4958459;29;20054;-76
2023/01/22 03:21:15;;;;;;;8.70;4.38;;;0.40;99.90;;;;;;4972996;28;20391;-76
2023/01/22 03:23:45;;;;;;;6.15;4.03;;;0.40;99.90;;;;;;4956699;29;20051;-76
2023/01/22 03:26:12;;;;;;;7.57;3.92;;;0.40;99.90;;;;;;4957719;28;20126;-76
2023/01/22 03:28:37;;;;;;;6.88;4.03;;;0.90;99.90;;;;;;4956795;28;20341;-76
2023/01/22 03:31:04;;;;;;;5.85;4.10;;;0.70;99.90;;;;;;4957044;29;20093;-77
2023/01/22 03:33:30;;;;;;;6.40;4.25;;;0.40;99.90;;;;;;4956315;29;20047;-75
2023/01/22 03:36:04;;;;;;;7.00;4.25;;;0.40;99.90;;;;;;4957427;28;20357;-77
2023/01/22 03:38:30;;;;;;;7.30;4.25;;;0.40;99.90;;;;;;4957410;28;20039;-77
2023/01/22 03:41:10;;;;;;;8.43;4.50;;;0.40;99.90;;;;;;4957381;28;20055;-76
2023/01/22 03:43:36;;;;;;;6.65;4.28;;;0.40;99.90;;;;;;4957825;28;20124;-77
2023/01/22 03:46:09;;;;;;;5.95;3.78;;;0.40;99.90;;;;;;4956297;29;20051;-76
2023/01/22 03:48:34;;;;;;;6.30;4.38;;;0.40;99.90;;;;;;4956824;29;20437;-76
2023/01/22 03:51:14;;;;;;;6.28;4.15;;;0.50;99.90;;;;;;4955906;29;20083;-76
2023/01/22 03:53:42;;;;;;;6.85;3.95;;;0.50;99.90;;;;;;4956371;29;20190;-76
2023/01/22 03:56:10;;;;;;;6.60;4.10;;;1.10;99.90;;;;;;4957159;28;20431;-76
2023/01/22 03:58:36;;;;;;;6.32;4.18;;;0.50;99.90;;;;;;4955828;29;20053;-76
2023/01/22 04:01:05;;;;;;;5.38;3.60;;;0.50;99.90;;;;;;4956890;28;20080;-76
2023/01/22 04:03:31;;;;;;;6.55;4.32;;;0.50;99.90;;;;;;4956886;28;20101;-77
2023/01/22 04:06:00;;;;;;;5.97;4.20;;;0.40;99.90;;;;;;4957490;28;20362;-77
2023/01/22 04:08:27;;;;;;;5.13;3.88;;;0.40;99.90;;;;;;4955797;29;20098;-76
2023/01/22 04:10:54;;;;;;;7.47;4.45;;;0.40;99.90;;;;;;4955870;29;20427;-76
2023/01/22 04:13:20;;;;;;;7.05;4.22;;;0.50;99.90;;;;;;4957510;28;20410;-76
2023/01/22 04:15:45;;;;;;;6.47;4.97;;;0.40;99.90;;;;;;4957153;29;20130;-76
2023/01/22 04:18:12;;;;;;;5.65;4.15;;;0.40;99.90;;;;;;4940145;29;20051;-76
2023/01/22 04:20:38;;;;;;;5.68;4.55;;;0.50;99.90;;;;;;4957051;28;20130;-77
2023/01/22 04:23:05;;;;;;;6.57;4.43;;;0.40;99.90;;;;;;4956574;28;20448;-77
2023/01/22 04:25:30;;;;;;;6.18;4.75;;;0.40;99.90;;;;;;4956472;28;20054;-76
2023/01/22 04:27:56;;;;;;;7.25;4.30;;;0.40;99.90;;;;;;4955962;28;20352;-77
2023/01/22 04:30:22;;;;;;;6.05;3.97;;;1.00;99.90;;;;;;4955282;29;20063;-77
2023/01/22 04:32:47;;;;;;;8.48;5.03;;;0.50;99.90;;;;;;4956917;29;20040;-77
2023/01/22 04:35:13;;;;;;;5.18;4.22;;;0.60;99.90;;;;;;4955007;29;20054;-77
2023/01/22 04:37:39;;;;;;;4.97;4.10;;;0.40;99.90;;;;;;4956260;29;20459;-76
2023/01/22 04:40:05;;;;;;;6.88;5.07;;;0.40;99.90;;;;;;4956159;29;20047;-76
2023/01/22 04:42:33;;;;;;;5.30;4.40;;;0.40;99.90;;;;;;4956212;28;20057;-76
2023/01/22 04:44:59;;;;;;;8.00;4.88;;;0.40;99.90;;;;;;4955844;29;20407;-76
2023/01/22 04:47:25;;;;;;;6.57;5.00;;;0.40;99.90;;;;;;4955978;29;20102;-75
2023/01/22 04:49:51;;;;;;;7.20;5.05;;;0.40;99.90;;;;;;4956111;29;20047;-77
2023/01/22 04:52:17;;;;;;;6.57;5.57;;;0.40;99.90;;;;;;4955387;29;20141;-76
2023/01/22 04:54:43;;;;;;;5.63;4.32;;;0.40;99.90;;;;;;4956327;28;20051;-76
2023/01/22 04:57:09;;;;;;;5.63;4.70;;;0.40;99.90;;;;;;4939429;29;20043;-76
2023/01/22 04:59:35;;;;;;;5.95;4.85;;;0.40;99.90;;;;;;4954979;29;20070;-77
2023/01/22 05:02:01;;;;;;;5.07;4.32;;;0.40;99.90;;;;;;4954587;29;20039;-76
2023/01/22 05:04:26;;;;;;;5.30;4.32;;;0.30;99.90;;;;;;4955943;29;20054;-76
2023/01/22 05:06:52;;;;;;;5.85;4.80;;;0.70;99.90;;;;;;4954611;29;20039;-76
2023/01/22 05:09:19;;;;;;;6.72;4.57;;;0.30;99.90;;;;;;4956192;29;20054;-76
2023/01/22 05:11:44;;;;;;;5.47;4.60;;;0.30;99.90;;;;;;4955683;28;20050;-76
2023/01/22 05:14:10;;;;;;;6.25;4.30;;;0.30;99.90;;;;;;4955610;28;20047;-77
2023/01/22 05:16:36;;;;;;;5.75;4.40;;;0.30;99.90;;;;;;4954385;29;20053;-76
2023/01/22 05:19:02;;;;;;;6.75;4.15;;;1.30;99.90;;;;;;4955462;29;20047;-77
2023/01/22 05:21:27;;;;;;;5.90;4.50;;;0.30;99.90;;;;;;4954414;29;20498;-77
2023/01/22 05:23:53;;;;;;;5.85;4.90;;;1.40;99.90;;;;;;4955379;29;20043;-77
2023/01/22 05:26:19;;;;;;;5.45;4.53;;;0.30;99.90;;;;;;4955551;29;20058;-76
2023/01/22 05:28:45;;;;;;;5.57;4.60;;;0.30;99.90;;;;;;4954605;29;20050;-76
2023/01/22 05:31:11;;;;;;;6.05;4.53;;;0.40;99.90;;;;;;4956007;28;20456;-76
2023/01/22 05:33:41;;;;;;;5.70;4.93;;;0.40;99.90;;;;;;4955437;28;20480;-76
2023/01/22 05:36:09;;;;;;;6.78;4.63;;;0.40;99.90;;;;;;4955251;28;20364;-75
2023/01/22 05:38:34;;;;;;;5.38;4.70;;;0.40;99.90;;;;;;4955620;28;20054;-76
2023/01/22 05:41:00;;;;;;;5.53;4.55;;;1.00;99.90;;;;;;4955340;29;20055;-76
2023/01/22 05:43:26;;;;;;;5.72;4.80;;;0.40;99.90;;;;;;4954793;29;20051;-76
2023/01/22 05:45:51;;;;;;;7.85;5.28;;;0.40;99.90;;;;;;4955339;29;20039;-76
2023/01/22 05:48:17;;;;;;;8.43;4.97;;;0.90;99.90;;;;;;4955291;29;20062;-76
2023/01/22 05:50:43;;;;;;;6.22;4.80;;;0.40;99.90;;;;;;4954264;29;20185;-76
2023/01/22 05:53:09;;;;;;;6.55;4.82;;;0.40;99.90;;;;;;4954312;29;20102;-76
2023/01/22 05:55:35;;;;;;;6.75;4.65;;;0.40;99.90;;;;;;4955593;29;20067;-77
2023/01/22 05:58:01;;;;;;;5.22;4.57;;;0.40;99.90;;;;;;4955427;29;20053;-76
2023/01/22 06:00:27;;;;;;;5.72;4.43;;;0.40;99.90;;;;;;4954339;29;20333;-76
2023/01/22 06:02:55;;;;;;;5.30;4.80;;;0.50;99.90;;;;;;4955221;29;20484;-76
2023/01/22 06:05:21;;;;;;;6.13;4.60;;;0.70;99.90;;;;;;4955193;28;20082;-76
2023/01/22 06:07:47;;;;;;;7.25;5.30;;;0.40;99.90;;;;;;4954963;28;20042;-76
2023/01/22 06:10:12;;;;;;;5.47;4.78;;;0.80;99.90;;;;;;4954911;29;20050;-76
2023/01/22 06:12:38;;;;;;;5.32;4.03;;;0.40;99.90;;;;;;4955380;29;20396;-76
2023/01/22 06:15:04;;;;;;;6.70;4.80;;;1.00;99.90;;;;;;4954804;29;20145;-76
2023/01/22 06:17:30;;;;;;;5.55;4.60;;;0.40;99.90;;;;;;4954808;28;20182;-76
2023/01/22 06:19:56;;;;;;;5.18;4.40;;;0.90;99.90;;;;;;4955039;28;20519;-76
2023/01/22 06:22:21;;;;;;;6.38;5.03;;;0.40;99.90;;;;;;4953997;29;20487;-76
2023/01/22 06:24:47;;;;;;;6.47;4.70;;;0.40;99.90;;;;;;4954270;29;20479;-76
2023/01/22 06:27:13;;;;;;;5.15;4.47;;;0.40;99.90;;;;;;4955930;29;20078;-76
2023/01/22 06:29:38;;;;;;;5.72;4.50;;;0.50;99.90;;;;;;4954237;29;20047;-75
2023/01/22 06:32:04;;;;;;;6.88;4.05;;;0.40;99.90;;;;;;4955657;29;20360;-76
2023/01/22 06:34:30;;;;;;;5.63;4.20;;;0.50;99.90;;;;;;4953865;29;20051;-76
2023/01/22 06:36:56;;;;;;;5.05;4.18;;;0.50;99.90;;;;;;4954928;29;20492;-76
2023/01/22 06:39:21;;;;;;;5.63;4.25;;;0.50;99.90;;;;;;4954868;28;20047;-76
2023/01/22 06:41:47;;;;;;;4.75;4.13;;;0.50;99.90;;;;;;4938466;29;20047;-76
2023/01/22 06:44:13;;;;;;;5.93;4.10;;;0.50;99.90;;;;;;4953603;29;20047;-75
2023/01/22 06:46:38;;;;;;;5.03;4.10;;;0.40;99.90;;;;;;4955026;29;20134;-76
2023/01/22 06:49:04;;;;;;;5.20;4.20;;;1.10;99.90;;;;;;4954747;28;20474;-76
2023/01/22 06:51:30;;;;;;;6.43;4.15;;;0.40;99.90;;;;;;4941692;29;20118;-75
2023/01/22 06:53:56;;;;;;;5.13;4.10;;;0.30;99.90;;;;;;4958232;28;20058;-75
2023/01/22 06:56:22;;;;;;;5.90;4.35;;;0.60;99.90;;;;;;4958185;28;20087;-76
2023/01/22 06:58:48;;;;;;;4.85;4.25;;;0.30;99.90;;;;;;4957350;29;20039;-75
2023/01/22 07:01:13;;;;;;;5.28;3.78;;;0.20;99.90;;;;;;4956834;29;20043;-76
2023/01/22 07:03:39;;;;;;;7.30;4.53;;;0.10;99.90;;;;;;4958540;28;20531;-76
2023/01/22 07:06:04;;;;;;;5.85;4.80;;;0.10;99.90;;;;;;4957820;29;20448;-77
2023/01/22 07:08:31;;;;;;;6.50;4.45;;;0.10;99.90;;;;;;4957902;29;20090;-77
2023/01/22 07:10:58;;;;;;;6.20;4.28;;;0.10;99.90;;;;;;4956881;29;20043;-77
2023/01/22 07:13:23;;;;;;;8.65;4.30;;;0.60;99.90;;;;;;4957277;29;20051;-76
2023/01/22 07:15:49;;;;;;;5.32;3.78;;;0.10;99.90;;;;;;4956564;29;20056;-76
2023/01/22 07:18:18;;;;;;;6.75;4.20;;;0.10;99.90;;;;;;4956424;29;20054;-77
2023/01/22 07:20:44;;;;;;;6.00;4.22;;;0.10;99.90;;;;;;4956603;29;20047;-76
2023/01/22 07:23:10;;;;;;;4.97;4.47;;;0.40;99.90;;;;;;4958413;29;20043;-77
2023/01/22 07:25:36;;;;;;;5.70;4.68;;;0.20;99.90;;;;;;4957653;28;20479;-77
2023/01/22 07:28:03;;;;;;;7.88;4.88;;;0.20;99.90;;;;;;4956439;29;20062;-77
2023/01/22 07:30:29;;;;;;;6.65;4.43;;;0.30;99.90;;;;;;4956203;29;20043;-77
2023/01/22 07:33:02;;;;;;;5.50;4.75;;;0.30;99.90;;;;;;4957287;28;20043;-77
2023/01/22 07:35:28;;;;;;;5.68;4.40;;;0.30;99.90;;;;;;4957602;28;20043;-77
2023/01/22 07:37:56;;;;;;;6.75;4.60;;;0.30;99.90;;;;;;4956737;29;20051;-76
2023/01/22 07:40:25;;;;;;;6.32;4.85;;;0.30;99.90;;;;;;4956284;29;20379;-78
2023/01/22 07:42:51;;;;;;;6.32;4.68;;;0.30;99.90;;;;;;4956340;29;20047;-76
2023/01/22 07:45:18;;;;;;;5.53;4.60;;;1.10;99.90;;;;;;4957058;28;20047;-76
2023/01/22 07:47:57;;;;;;;5.70;4.18;;;0.40;99.90;;;;;;4956986;28;20387;-74
2023/01/22 07:50:25;;;;;;;5.35;3.92;;;0.40;99.90;;;;;;4956020;29;20047;-73
2023/01/22 07:52:51;;;;;;;6.68;4.25;;;0.40;99.90;;;;;;4956958;28;20050;-73
2023/01/22 07:55:17;;;;;;;4.75;4.07;;;0.70;99.90;;;;;;4956651;29;20043;-73
2023/01/22 07:57:43;;;;;;;6.85;3.90;;;0.40;99.90;;;;;;4956952;29;20043;-73
2023/01/22 08:00:10;;;;;;;5.60;4.30;;;0.40;99.90;;;;;;4956227;29;20040;-73
2023/01/22 08:02:40;;;;;;;6.15;4.00;;;0.40;99.90;;;;;;4954949;28;20089;-73
2023/01/22 08:05:07;;;;;;;5.30;4.15;;;0.40;99.90;;;;;;4956210;28;20479;-74
2023/01/22 08:07:32;;;;;;;6.32;4.38;;;0.40;99.90;;;;;;4957214;28;20408;-73
2023/01/22 08:09:58;;;;;;;5.03;4.15;;;0.50;99.90;;;;;;4956759;29;20093;-73
2023/01/22 08:12:24;;;;;;;6.03;4.70;;;0.50;99.90;;;;;;4956615;29;20093;-73
2023/01/22 08:14:49;;;;;;;6.15;4.38;;;0.40;99.90;;;;;;4956274;29;20054;-73
2023/01/22 08:17:15;;;;;;;6.88;4.32;;;0.90;99.90;;;;;;4956612;29;20066;-73
2023/01/22 08:19:41;;;;;;;7.03;4.70;;;1.00;99.90;;;;;;4956580;29;20043;-73
2023/01/22 08:22:06;;;;;;;5.78;4.57;;;0.50;99.90;;;;;;4956137;29;20043;-73
2023/01/22 08:24:35;;;;;;;5.35;4.57;;;0.50;99.90;;;;;;4956675;28;20047;-73
2023/01/22 08:27:01;;;;;;;6.47;4.57;;;0.90;99.90;;;;;;4956892;28;20043;-73
2023/01/22 08:29:27;;;;;;;5.88;4.32;;;0.70;99.90;;;;;;4956385;28;20039;-73
2023/01/22 08:31:53;;;;;;;5.80;5.00;;;0.50;99.90;;;;;;4955427;29;20051;-73
2023/01/22 08:34:19;;;;;;;5.03;4.43;;;0.60;99.90;;;;;;4956289;29;20134;-73
2023/01/22 08:36:45;;;;;;;5.35;4.70;;;0.60;99.90;;;;;;4954111;29;20138;-79
2023/01/22 08:39:12;;;;;;;5.57;4.53;;;0.60;99.90;;;;;;4955976;29;20043;-77
2023/01/22 08:41:39;;;;;;;6.05;4.70;;;0.60;99.90;;;;;;4956555;28;20063;-78
2023/01/22 08:44:05;;;;;;;5.25;4.55;;;0.60;99.90;;;;;;4955169;29;20047;-77
2023/01/22 08:46:31;;;;;;;7.47;5.07;;;0.70;99.90;;;;;;4955847;29;20329;-77
2023/01/22 08:48:56;;;;;;;7.68;5.13;;;0.70;99.90;;;;;;4954957;29;20043;-78
2023/01/22 08:51:23;;;;;;;6.22;4.80;;;0.70;99.90;;;;;;4955593;29;20357;-76
2023/01/22 08:53:50;;;;;;;5.63;4.60;;;0.80;99.90;;;;;;4955410;29;20361;-78
2023/01/22 08:56:15;;;;;;;5.55;4.75;;;0.80;99.90;;;;;;4955926;28;20050;-77
2023/01/22 08:58:41;;;;;;;6.18;4.80;;;1.40;99.90;;;;;;4954838;29;20047;-77
2023/01/22 09:01:14;;;;;;;6.72;5.10;;;0.90;99.90;;;;;;4955501;28;20086;-78
2023/01/22 09:03:39;;;;;;;6.57;5.15;;;1.30;99.90;;;;;;4955432;28;20587;-77
2023/01/22 09:06:05;;;;;;;6.13;4.70;;;0.90;99.90;;;;;;4955766;29;20130;-77
2023/01/22 09:08:31;;;;;;;5.97;4.85;;;0.90;99.90;;;;;;4955434;29;20043;-78
2023/01/22 09:10:56;;;;;;;5.57;4.60;;;1.10;99.90;;;;;;4954465;29;20050;-78
2023/01/22 09:13:22;;;;;;;7.15;4.65;;;1.50;99.90;;;;;;4954012;28;20451;-77
2023/01/22 09:15:48;;;;;;;5.88;4.72;;;1.00;99.90;;;;;;4954661;29;20051;-77
2023/01/22 09:18:13;;;;;;;6.32;4.28;;;1.00;99.90;;;;;;4954396;29;20138;-76
2023/01/22 09:20:40;;;;;;;7.45;4.82;;;1.10;99.90;;;;;;4955845;29;20493;-78
2023/01/22 09:23:06;;;;;;;5.63;4.75;;;0.90;99.90;;;;;;4970801;28;20054;-78
2023/01/22 09:25:32;;;;;;;6.40;4.80;;;0.90;99.90;;;;;;4954484;29;20047;-77
2023/01/22 09:28:03;;;;;;;6.43;4.35;;;0.90;99.90;;;;;;4954476;29;20421;-78
2023/01/22 09:30:30;;;;;;;5.90;4.68;;;0.90;99.90;;;;;;4955461;28;20051;-78
2023/01/22 09:32:55;;;;;;;6.75;5.18;;;0.90;99.90;;;;;;4954350;29;20055;-78
2023/01/22 09:35:21;;;;;;;7.10;5.10;;;0.90;99.90;;;;;;4938385;28;20130;-79
2023/01/22 09:37:47;;;;;;;5.97;4.80;;;0.90;99.90;;;;;;4938274;29;20134;-77
2023/01/22 09:40:34;;;;;;;6.28;4.90;;;0.90;99.90;;;;;;4939051;29;20122;-78
2023/01/22 09:43:33;;;;;;;5.95;4.63;;;0.90;99.90;;;;;;4954459;29;20051;-79
2023/01/22 09:46:11;;;;;;;5.40;4.15;;;0.90;99.90;;;;;;4942498;28;20059;-79
2023/01/22 09:48:43;;;;;;;6.35;4.95;;;1.00;99.90;;;;;;4954637;29;20052;-79
2023/01/22 09:51:14;;;;;;;7.00;4.60;;;1.00;99.90;;;;;;4954251;29;20086;-78
2023/01/22 09:53:43;;;;;;;6.22;4.47;;;1.00;99.90;;;;;;4955040;29;20056;-79
2023/01/22 09:56:34;;;;;;;5.88;4.25;;;1.00;99.90;;;;;;4938957;29;20456;-79
2023/01/22 09:59:03;;;;;;;5.13;4.00;;;1.70;99.90;;;;;;4945312;29;20404;-79
2023/01/22 10:01:30;;;;;;;6.70;4.43;;;1.30;99.90;;;;;;4954223;29;20082;-78
2023/01/22 10:04:02;;;;;;;5.60;4.18;;;1.00;99.90;;;;;;4955171;28;20110;-78
2023/01/22 10:06:29;;;;;;;5.93;4.28;;;1.10;99.90;;;;;;4954852;29;20364;-79
2023/01/22 10:09:11;;;;;;;5.72;4.72;;;1.00;99.90;;;;;;4954833;29;20050;-76
2023/01/22 10:11:37;;;;;;;5.20;4.32;;;1.00;99.90;;;;;;4970027;28;20079;-77
2023/01/22 10:14:08;;;;;;;7.72;5.22;;;1.00;99.90;;;;;;4954233;29;20050;-77
2023/01/22 10:16:34;;;;;;;6.22;4.40;;;1.00;99.90;;;;;;4937892;29;20062;-77
2023/01/22 10:19:06;;;;;;;7.82;4.95;;;1.00;99.90;;;;;;4954297;29;20047;-77
2023/01/22 10:21:43;;;;;;;6.90;4.78;;;1.60;99.90;;;;;;4953872;29;20040;-75
2023/01/22 10:24:12;;;;;;;7.82;4.90;;;1.10;99.90;;;;;;4953978;28;20050;-74
2023/01/22 10:26:38;;;;;;;6.43;4.60;;;1.20;99.90;;;;;;4958530;28;20138;-74
2023/01/22 10:29:26;;;;;;;5.65;4.15;;;1.70;99.90;;;;;;4958474;29;20142;-75
2023/01/22 10:31:55;;;;;;;6.25;4.72;;;1.30;99.90;;;;;;4941996;29;20149;-75
2023/01/22 10:34:35;;;;;;;6.72;4.70;;;1.30;99.90;;;;;;4957644;29;20043;-76
2023/01/22 10:37:14;;;;;;;5.45;4.10;;;1.30;99.90;;;;;;4959105;28;20047;-75
2023/01/22 10:39:42;;;;;;;6.25;4.13;;;1.60;99.90;;;;;;4957288;29;20054;-75
2023/01/22 10:42:16;;;;;;;5.30;4.05;;;1.40;99.90;;;;;;4958313;28;20178;-75
2023/01/22 10:44:41;;;;;;;6.28;4.88;;;1.40;99.90;;;;;;4941152;29;20047;-75
2023/01/22 10:47:17;;;;;;;7.38;4.95;;;1.60;99.90;;;;;;4942209;29;20051;-76
2023/01/22 10:49:43;;;;;;;7.45;4.93;;;1.60;99.90;;;;;;4941362;29;20483;-77
2023/01/22 10:52:23;;;;;;;6.55;4.82;;;1.40;99.90;;;;;;4941341;29;20051;-77
2023/01/22 10:54:58;;;;;;;6.78;4.50;;;1.60;99.90;;;;;;4957560;29;20047;-77
2023/01/22 10:57:33;;;;;;;5.72;4.82;;;1.50;99.90;;;;;;4957155;29;20050;-76
2023/01/22 11:00:20;;;;;;;6.65;5.32;;;1.30;99.90;;;;;;4958356;28;20047;-77
2023/01/22 11:02:48;;;;;;;7.43;4.85;;;1.20;99.90;;;;;;4941101;29;20051;-76
2023/01/22 11:05:20;;;;;;;6.53;4.40;;;1.60;99.90;;;;;;4958104;28;20368;-77
2023/01/22 11:07:52;;;;;;;7.10;4.88;;;1.30;99.90;;;;;;4941401;29;20134;-76
2023/01/22 11:10:49;;;;;;;5.93;4.82;;;1.20;99.90;;;;;;4958721;28;20444;-75
2023/01/22 11:13:36;;;;;;;6.30;4.68;;;1.30;99.90;;;;;;4957911;29;20093;-77
2023/01/22 11:16:09;;;;;;;6.78;4.50;;;1.30;99.90;;;;;;4957589;28;20082;-78
2023/01/22 11:18:44;;;;;;;7.03;4.97;;;1.30;99.90;;;;;;4956808;29;20387;-77
2023/01/22 11:21:25;;;;;;;7.88;5.70;;;1.30;99.90;;;;;;4940711;29;20421;-76
2023/01/22 11:24:18;;;;;;;8.43;5.05;;;1.30;99.90;;;;;;4956316;29;20075;-77
2023/01/22 11:27:07;;;;;;;6.30;4.75;;;1.30;99.90;;;;;;4956956;29;20043;-79
2023/01/22 11:30:00;;;;;;;6.90;5.00;;;1.30;99.90;;;;;;4956420;29;20043;-78
2023/01/22 11:32:41;;;;;;;6.85;4.97;;;1.30;99.90;;;;;;4957435;29;20399;-77
2023/01/22 11:35:40;;;;;;;7.63;5.30;;;1.40;99.90;;;;;;4956164;29;20047;-77
2023/01/22 11:38:23;;;;;;;8.05;5.35;;;1.40;99.90;;;;;;4956583;29;20089;-77
2023/01/22 11:41:19;;;;;;;7.13;5.10;;;1.70;99.90;;;;;;4957235;28;20078;-77
2023/01/22 11:44:27;;;;;;;6.80;4.50;;;1.40;99.90;;;;;;4956148;29;20055;-77
2023/01/22 11:47:01;;;;;;;8.35;5.10;;;1.50;99.90;;;;;;4957366;28;20130;-78
2023/01/22 11:50:11;;;;;;;7.55;5.15;;;1.50;99.90;;;;;;4957280;29;20043;-78
2023/01/22 11:53:07;;;;;;;7.45;4.63;;;1.60;99.90;;;;;;4924441;28;20051;-78
2023/01/22 11:56:00;;;;;;;6.28;4.75;;;1.60;99.90;;;;;;4957756;28;20156;-78
2023/01/22 11:58:53;;;;;;;6.75;4.88;;;1.60;99.90;;;;;;4956104;29;20043;-77
2023/01/22 12:01:40;;;;;;;7.38;5.30;;;1.60;99.90;;;;;;4972645;28;20050;-78
2023/01/22 12:04:17;;;;;;;;;;;1.70;99.90;;;;;;4955915;29;20119;-78
2023/01/22 12:06:49;;;;;;;6.50;4.50;;;1.70;99.90;;;;;;4972261;28;19919;-78
2023/01/22 12:09:45;;;;;;;7.68;5.18;;;1.60;99.90;;;;;;4956832;29;20051;-79
2023/01/22 12:12:40;;;;;;;11.87;4.90;;;1.70;99.90;;;;;;4955908;29;20051;-77
2023/01/22 12:15:55;;;;;;;6.57;4.50;;;1.70;99.90;;;;;;4954962;29;20052;-77
2023/01/22 12:18:26;;;;;;;6.90;5.28;;;1.70;99.90;;;;;;4881889;29;20481;-77
2023/01/22 12:21:26;;;;;;;6.97;4.95;;;1.70;99.90;;;;;;4897934;29;20421;-78
2023/01/22 12:24:00;;;;;;;16.05;10.70;;;1.70;99.90;;;;;;4956804;28;20070;-77
2023/01/22 12:26:31;;;;;;;21.75;13.57;;;1.70;99.90;;;;;;4957198;28;20093;-76
2023/01/22 12:29:28;;;;;;;22.02;14.07;;;1.70;99.90;;;;;;4957075;28;20055;-76
2023/01/22 12:32:09;;;;;;;8.50;6.50;;;1.70;99.90;;;;;;4955100;28;20055;-77
2023/01/22 12:34:48;;;;;;;7.40;5.45;;;1.70;99.90;;;;;;4957169;28;20035;-77
2023/01/22 12:37:19;;;;;;;7.95;4.75;;;2.20;99.90;;;;;;4955416;29;20055;-79
2023/01/22 12:40:22;;;;;;;9.98;8.70;;;1.70;99.90;;;;;;4956873;28;20114;-76
2023/01/22 12:43:02;;;;;;;7.35;4.95;;;1.80;99.90;;;;;;4954655;29;20130;-77
2023/01/22 12:45:52;;;;;;;5.47;4.18;;;1.70;99.90;;;;;;4954815;29;20043;-76
2023/01/22 12:48:36;;;;;;;8.43;5.60;;;1.80;99.90;;;;;;4954759;28;20384;-78
2023/01/22 12:51:02;;;;;;;6.03;4.38;;;1.70;99.90;;;;;;4955128;29;20480;-78
2023/01/22 12:53:33;;;;;;;6.53;4.78;;;1.70;99.90;;;;;;4939239;29;20102;-77
2023/01/22 12:56:10;;;;;;;9.80;5.25;;;1.80;99.90;;;;;;4955762;29;20065;-77
2023/01/22 12:58:38;;;;;;;7.20;4.75;;;1.80;99.90;;;;;;4923171;29;20142;-78
2023/01/22 13:01:12;;;;;;;6.38;4.80;;;1.70;99.90;;;;;;4954745;29;20122;-77
2023/01/22 13:03:40;;;;;;;6.07;4.05;;;1.70;99.90;;;;;;4954524;29;20090;-77
2023/01/22 13:06:29;;;;;;;5.50;4.10;;;1.80;99.90;;;;;;4955406;29;20372;-76
2023/01/22 13:08:55;;;;;;;6.30;3.95;;;1.80;99.90;;;;;;4956619;28;20042;-77
2023/01/22 13:11:34;;;;;;;6.75;4.85;;;1.80;99.90;;;;;;4955737;28;20475;-77
2023/01/22 13:14:21;;;;;;;7.10;4.68;;;1.80;99.90;;;;;;4955630;28;20050;-77
2023/01/22 13:17:02;;;;;;;6.22;4.15;;;2.00;99.90;;;;;;4954378;29;20055;-77
2023/01/22 13:19:51;;;;;;;9.00;4.82;;;1.90;99.90;;;;;;4956432;28;20093;-76